sensor_id;sensor_type;location;lat;lon;timestamp;temperature;humidity
48488;DHT22;34289;48.572;13.378;2023-03-16T00:00:28;-1.30;99.90
48488;DHT22;34289;48.572;13.378;2023-03-16T00:02:53;-1.40;99.90
48488;DHT22;34289;48.572;13.378;2023-03-16T00:05:20;-1.00;99.90
48488;DHT22;34289;48.572;13.378;2023-03-16T00:07:45;-1.30;99.90
48488;DHT22;34289;48.572;13.378;2023-03-16T00:10:12;-1.30;99.90
48488;DHT22;34289;48.572;13.378;2023-03-16T00:12:38;-1.20;99.90
48488;DHT22;34289;48.572;13.378;2023-03-16T00:15:04;-1.20;99.90
48488;DHT22;34289;48.572;13.378;2023-03-16T00:17:30;-1.10;99.90
48488;DHT22;34289;48.572;13.378;2023-03-16T00:19:56;-0.90;99.90
48488;DHT22;34289;48.572;13.378;2023-03-16T00:22:26;-0.80;99.90
48488;DHT22;34289;48.572;13.378;2023-03-16T00:24:53;-1.00;99.90
48488;DHT22;34289;48.572;13.378;2023-03-16T00:27:21;-1.20;99.90
48488;DHT22;34289;48.572;13.378;2023-03-16T00:29:47;-1.60;99.90
48488;DHT22;34289;48.572;13.378;2023-03-16T00:32:18;-1.80;99.90
48488;DHT22;34289;48.572;13.378;2023-03-16T00:34:45;-1.80;99.90
48488;DHT22;34289;48.572;13.378;2023-03-16T00:37:13;-1.80;99.90
48488;DHT22;34289;48.572;13.378;2023-03-16T00:39:40;-1.90;99.90
48488;DHT22;34289;48.572;13.378;2023-03-16T00:42:07;-1.80;99.90
48488;DHT22;34289;48.572;13.378;2023-03-16T00:44:34;-1.60;99.90
48488;DHT22;34289;48.572;13.378;2023-03-16T00:47:00;-1.50;99.90
48488;DHT22;34289;48.572;13.378;2023-03-16T00:49:26;-1.70;99.90
48488;DHT22;34289;48.572;13.378;2023-03-16T00:51:52;-1.90;99.90
48488;DHT22;34289;48.572;13.378;2023-03-16T00:54:17;-2.00;99.90
48488;DHT22;34289;48.572;13.378;2023-03-16T00:56:44;-1.70;99.90
48488;DHT22;34289;48.572;13.378;2023-03-16T00:59:10;-1.70;99.90
48488;DHT22;34289;48.572;13.378;2023-03-16T01:01:37;-1.70;99.90
48488;DHT22;34289;48.572;13.378;2023-03-16T01:04:03;-1.50;99.90
48488;DHT22;34289;48.572;13.378;2023-03-16T01:06:29;-1.70;99.90
48488;DHT22;34289;48.572;13.378;2023-03-16T01:08:56;-1.90;99.90
48488;DHT22;34289;48.572;13.378;2023-03-16T01:11:22;-2.20;99.90
48488;DHT22;34289;48.572;13.378;2023-03-16T01:13:49;-2.20;99.90
48488;DHT22;34289;48.572;13.378;2023-03-16T01:16:16;-2.10;99.90
48488;DHT22;34289;48.572;13.378;2023-03-16T01:18:43;-2.00;99.90
48488;DHT22;34289;48.572;13.378;2023-03-16T01:21:10;-1.90;99.90
48488;DHT22;34289;48.572;13.378;2023-03-16T01:23:38;-1.80;99.90
48488;DHT22;34289;48.572;13.378;2023-03-16T01:26:04;-1.80;99.90
48488;DHT22;34289;48.572;13.378;2023-03-16T01:28:31;-1.70;99.90
48488;DHT22;34289;48.572;13.378;2023-03-16T01:31:06;-1.80;99.90
48488;DHT22;34289;48.572;13.378;2023-03-16T01:33:33;-0.80;99.90
48488;DHT22;34289;48.572;13.378;2023-03-16T01:36:11;-2.10;99.90
48488;DHT22;34289;48.572;13.378;2023-03-16T01:38:37;-2.30;99.90
48488;DHT22;34289;48.572;13.378;2023-03-16T01:41:03;-2.60;99.90
48488;DHT22;34289;48.572;13.378;2023-03-16T01:43:30;-2.40;99.90
48488;DHT22;34289;48.572;13.378;2023-03-16T01:51:04;-2.30;99.90
48488;DHT22;34289;48.572;13.378;2023-03-16T01:53:31;-2.40;99.90
48488;DHT22;34289;48.572;13.378;2023-03-16T01:55:59;-2.50;99.90
48488;DHT22;34289;48.572;13.378;2023-03-16T01:58:27;-2.40;99.90
48488;DHT22;34289;48.572;13.378;2023-03-16T02:00:53;-2.30;99.90
48488;DHT22;34289;48.572;13.378;2023-03-16T02:03:19;-2.50;99.90
48488;DHT22;34289;48.572;13.378;2023-03-16T02:05:57;-2.60;99.90
48488;DHT22;34289;48.572;13.378;2023-03-16T02:08:24;-2.40;99.90
48488;DHT22;34289;48.572;13.378;2023-03-16T02:10:52;-2.40;99.90
48488;DHT22;34289;48.572;13.378;2023-03-16T02:13:23;-2.40;99.90
48488;DHT22;34289;48.572;13.378;2023-03-16T02:15:51;-2.50;99.90
48488;DHT22;34289;48.572;13.378;2023-03-16T02:18:18;-2.40;99.90
48488;DHT22;34289;48.572;13.378;2023-03-16T02:23:15;-2.40;99.90
48488;DHT22;34289;48.572;13.378;2023-03-16T02:25:53;-2.50;99.90
48488;DHT22;34289;48.572;13.378;2023-03-16T02:31:13;-2.70;99.90
48488;DHT22;34289;48.572;13.378;2023-03-16T02:33:39;-2.70;99.90
48488;DHT22;34289;48.572;13.378;2023-03-16T02:36:06;-1.90;99.90
48488;DHT22;34289;48.572;13.378;2023-03-16T02:38:31;-2.60;99.90
48488;DHT22;34289;48.572;13.378;2023-03-16T02:41:18;-2.40;99.90
48488;DHT22;34289;48.572;13.378;2023-03-16T02:44:00;-2.60;99.90
48488;DHT22;34289;48.572;13.378;2023-03-16T02:46:29;-2.80;99.90
48488;DHT22;34289;48.572;13.378;2023-03-16T02:49:07;-2.50;99.90
48488;DHT22;34289;48.572;13.378;2023-03-16T02:51:35;-2.40;99.90
48488;DHT22;34289;48.572;13.378;2023-03-16T02:54:01;-2.60;99.90
48488;DHT22;34289;48.572;13.378;2023-03-16T02:56:26;-2.60;99.90
48488;DHT22;34289;48.572;13.378;2023-03-16T02:58:52;-2.60;99.90
48488;DHT22;34289;48.572;13.378;2023-03-16T03:01:18;-2.40;99.90
48488;DHT22;34289;48.572;13.378;2023-03-16T03:03:43;-2.30;99.90
48488;DHT22;34289;48.572;13.378;2023-03-16T03:06:09;-2.30;99.90
48488;DHT22;34289;48.572;13.378;2023-03-16T03:08:35;-2.60;99.90
48488;DHT22;34289;48.572;13.378;2023-03-16T03:11:01;-2.60;99.90
48488;DHT22;34289;48.572;13.378;2023-03-16T03:13:27;-2.50;99.90
48488;DHT22;34289;48.572;13.378;2023-03-16T03:15:52;-2.20;99.90
48488;DHT22;34289;48.572;13.378;2023-03-16T03:18:18;-1.90;99.90
48488;DHT22;34289;48.572;13.378;2023-03-16T03:20:44;-2.10;99.90
48488;DHT22;34289;48.572;13.378;2023-03-16T03:23:09;-2.50;99.90
48488;DHT22;34289;48.572;13.378;2023-03-16T03:25:35;-2.50;99.90
48488;DHT22;34289;48.572;13.378;2023-03-16T03:28:02;-2.40;99.90
48488;DHT22;34289;48.572;13.378;2023-03-16T03:30:30;-2.00;99.90
48488;DHT22;34289;48.572;13.378;2023-03-16T03:32:56;-2.00;99.90
48488;DHT22;34289;48.572;13.378;2023-03-16T03:35:22;-1.80;99.90
48488;DHT22;34289;48.572;13.378;2023-03-16T03:37:48;-1.80;99.90
48488;DHT22;34289;48.572;13.378;2023-03-16T03:40:16;-1.80;99.90
48488;DHT22;34289;48.572;13.378;2023-03-16T03:42:42;-1.50;99.90
48488;DHT22;34289;48.572;13.378;2023-03-16T03:45:08;-1.80;99.90
48488;DHT22;34289;48.572;13.378;2023-03-16T03:47:37;-1.60;99.90
48488;DHT22;34289;48.572;13.378;2023-03-16T03:50:03;-1.40;99.90
48488;DHT22;34289;48.572;13.378;2023-03-16T03:52:28;-1.30;99.90
48488;DHT22;34289;48.572;13.378;2023-03-16T03:54:54;-1.20;99.90
48488;DHT22;34289;48.572;13.378;2023-03-16T03:57:19;-1.30;99.90
48488;DHT22;34289;48.572;13.378;2023-03-16T03:59:45;-1.20;99.90
48488;DHT22;34289;48.572;13.378;2023-03-16T04:02:11;-1.20;99.90
48488;DHT22;34289;48.572;13.378;2023-03-16T04:04:37;-1.10;99.90
48488;DHT22;34289;48.572;13.378;2023-03-16T04:07:03;-1.20;99.90
48488;DHT22;34289;48.572;13.378;2023-03-16T04:09:29;-1.30;99.90
48488;DHT22;34289;48.572;13.378;2023-03-16T04:12:01;-1.20;99.90
48488;DHT22;34289;48.572;13.378;2023-03-16T04:14:28;-1.20;99.90
48488;DHT22;34289;48.572;13.378;2023-03-16T04:16:54;-1.20;99.90
48488;DHT22;34289;48.572;13.378;2023-03-16T04:19:21;-1.30;99.90
48488;DHT22;34289;48.572;13.378;2023-03-16T04:21:48;-1.20;99.90
48488;DHT22;34289;48.572;13.378;2023-03-16T04:24:13;-1.20;99.90
48488;DHT22;34289;48.572;13.378;2023-03-16T04:26:40;-1.20;99.90
48488;DHT22;34289;48.572;13.378;2023-03-16T04:29:06;-1.30;99.90
48488;DHT22;34289;48.572;13.378;2023-03-16T04:31:32;-1.30;99.90
48488;DHT22;34289;48.572;13.378;2023-03-16T04:33:58;-1.20;99.90
48488;DHT22;34289;48.572;13.378;2023-03-16T04:36:23;-1.50;99.90
48488;DHT22;34289;48.572;13.378;2023-03-16T04:38:50;-1.70;99.90
48488;DHT22;34289;48.572;13.378;2023-03-16T04:41:16;-1.50;99.90
48488;DHT22;34289;48.572;13.378;2023-03-16T04:43:42;-1.30;99.90
48488;DHT22;34289;48.572;13.378;2023-03-16T04:46:09;-1.30;99.90
48488;DHT22;34289;48.572;13.378;2023-03-16T04:48:35;-1.20;99.90
48488;DHT22;34289;48.572;13.378;2023-03-16T04:51:01;-1.20;99.90
48488;DHT22;34289;48.572;13.378;2023-03-16T04:53:28;-1.10;99.90
48488;DHT22;34289;48.572;13.378;2023-03-16T04:55:54;-1.10;99.90
48488;DHT22;34289;48.572;13.378;2023-03-16T04:58:20;-0.90;99.90
48488;DHT22;34289;48.572;13.378;2023-03-16T05:00:47;-0.90;99.90
48488;DHT22;34289;48.572;13.378;2023-03-16T05:03:12;-0.90;99.90
48488;DHT22;34289;48.572;13.378;2023-03-16T05:05:39;-0.90;99.90
48488;DHT22;34289;48.572;13.378;2023-03-16T05:08:06;-0.90;99.90
48488;DHT22;34289;48.572;13.378;2023-03-16T05:10:33;-1.00;99.90
48488;DHT22;34289;48.572;13.378;2023-03-16T05:12:59;-1.20;99.90
48488;DHT22;34289;48.572;13.378;2023-03-16T05:15:25;-1.00;99.90
48488;DHT22;34289;48.572;13.378;2023-03-16T05:17:51;-1.10;99.90
48488;DHT22;34289;48.572;13.378;2023-03-16T05:20:17;-1.30;99.90
48488;DHT22;34289;48.572;13.378;2023-03-16T05:22:44;-1.30;99.90
48488;DHT22;34289;48.572;13.378;2023-03-16T05:25:10;-1.20;99.90
48488;DHT22;34289;48.572;13.378;2023-03-16T05:27:42;-1.20;99.90
48488;DHT22;34289;48.572;13.378;2023-03-16T05:30:10;-1.30;99.90
48488;DHT22;34289;48.572;13.378;2023-03-16T05:32:36;-1.50;99.90
48488;DHT22;34289;48.572;13.378;2023-03-16T05:35:02;-1.60;99.90
48488;DHT22;34289;48.572;13.378;2023-03-16T05:37:28;-1.50;99.90
48488;DHT22;34289;48.572;13.378;2023-03-16T05:39:53;-1.60;99.90
48488;DHT22;34289;48.572;13.378;2023-03-16T05:42:19;-1.50;99.90
48488;DHT22;34289;48.572;13.378;2023-03-16T05:44:45;-1.00;99.90
48488;DHT22;34289;48.572;13.378;2023-03-16T05:47:11;-1.50;99.90
48488;DHT22;34289;48.572;13.378;2023-03-16T05:49:36;-1.60;99.90
48488;DHT22;34289;48.572;13.378;2023-03-16T05:52:02;-1.60;99.90
48488;DHT22;34289;48.572;13.378;2023-03-16T05:54:28;-1.40;99.90
48488;DHT22;34289;48.572;13.378;2023-03-16T05:56:54;-1.60;99.90
48488;DHT22;34289;48.572;13.378;2023-03-16T05:59:20;-1.30;99.90
48488;DHT22;34289;48.572;13.378;2023-03-16T06:01:45;-1.30;99.90
48488;DHT22;34289;48.572;13.378;2023-03-16T06:04:11;-1.30;99.90
48488;DHT22;34289;48.572;13.378;2023-03-16T06:06:37;-1.40;99.90
48488;DHT22;34289;48.572;13.378;2023-03-16T06:09:03;-1.50;99.90
48488;DHT22;34289;48.572;13.378;2023-03-16T06:11:29;-1.50;99.90
48488;DHT22;34289;48.572;13.378;2023-03-16T06:13:57;-1.40;99.90
48488;DHT22;34289;48.572;13.378;2023-03-16T06:16:23;-1.10;99.90
48488;DHT22;34289;48.572;13.378;2023-03-16T06:18:49;-0.40;99.90
48488;DHT22;34289;48.572;13.378;2023-03-16T06:21:15;-0.90;99.90
48488;DHT22;34289;48.572;13.378;2023-03-16T06:23:41;-0.90;99.90
48488;DHT22;34289;48.572;13.378;2023-03-16T06:26:06;-1.10;99.90
48488;DHT22;34289;48.572;13.378;2023-03-16T06:28:32;-1.10;99.90
48488;DHT22;34289;48.572;13.378;2023-03-16T06:30:58;-1.10;99.90
48488;DHT22;34289;48.572;13.378;2023-03-16T06:33:24;-0.80;99.90
48488;DHT22;34289;48.572;13.378;2023-03-16T06:35:50;-0.90;99.90
48488;DHT22;34289;48.572;13.378;2023-03-16T06:38:16;-1.10;99.90
48488;DHT22;34289;48.572;13.378;2023-03-16T06:40:43;-1.00;99.90
48488;DHT22;34289;48.572;13.378;2023-03-16T06:43:09;-0.70;99.90
48488;DHT22;34289;48.572;13.378;2023-03-16T06:45:34;-0.60;99.90
48488;DHT22;34289;48.572;13.378;2023-03-16T06:48:00;-0.90;99.90
48488;DHT22;34289;48.572;13.378;2023-03-16T06:50:26;-0.30;99.90
48488;DHT22;34289;48.572;13.378;2023-03-16T06:52:52;-0.90;99.90
48488;DHT22;34289;48.572;13.378;2023-03-16T06:55:17;-1.00;99.90
48488;DHT22;34289;48.572;13.378;2023-03-16T06:57:43;-0.80;99.90
48488;DHT22;34289;48.572;13.378;2023-03-16T07:00:09;-0.60;99.90
48488;DHT22;34289;48.572;13.378;2023-03-16T07:02:38;-0.60;99.90
48488;DHT22;34289;48.572;13.378;2023-03-16T07:05:06;-0.60;99.90
48488;DHT22;34289;48.572;13.378;2023-03-16T07:07:32;-0.60;99.90
48488;DHT22;34289;48.572;13.378;2023-03-16T07:09:58;-0.50;99.90
48488;DHT22;34289;48.572;13.378;2023-03-16T07:12:24;-0.30;99.90
48488;DHT22;34289;48.572;13.378;2023-03-16T07:14:50;-0.40;99.90
48488;DHT22;34289;48.572;13.378;2023-03-16T07:17:16;-0.50;99.90
48488;DHT22;34289;48.572;13.378;2023-03-16T07:19:41;-0.40;99.90
48488;DHT22;34289;48.572;13.378;2023-03-16T07:22:08;-0.20;99.90
48488;DHT22;34289;48.572;13.378;2023-03-16T07:24:34;-0.10;99.90
48488;DHT22;34289;48.572;13.378;2023-03-16T07:27:00;0.00;99.90
48488;DHT22;34289;48.572;13.378;2023-03-16T07:29:26;0.20;99.90
48488;DHT22;34289;48.572;13.378;2023-03-16T07:31:53;0.40;99.90
48488;DHT22;34289;48.572;13.378;2023-03-16T07:34:19;0.50;99.90
48488;DHT22;34289;48.572;13.378;2023-03-16T07:36:45;0.90;99.90
48488;DHT22;34289;48.572;13.378;2023-03-16T07:39:13;1.70;99.90
48488;DHT22;34289;48.572;13.378;2023-03-16T07:41:42;1.10;99.90
48488;DHT22;34289;48.572;13.378;2023-03-16T07:44:08;0.80;99.90
48488;DHT22;34289;48.572;13.378;2023-03-16T07:46:35;0.70;99.90
48488;DHT22;34289;48.572;13.378;2023-03-16T07:49:01;0.70;99.90
48488;DHT22;34289;48.572;13.378;2023-03-16T07:51:27;0.60;99.90
48488;DHT22;34289;48.572;13.378;2023-03-16T07:53:52;0.90;99.90
48488;DHT22;34289;48.572;13.378;2023-03-16T07:56:18;1.30;99.90
48488;DHT22;34289;48.572;13.378;2023-03-16T07:58:44;1.50;99.90
48488;DHT22;34289;48.572;13.378;2023-03-16T08:01:10;1.60;99.90
48488;DHT22;34289;48.572;13.378;2023-03-16T08:03:36;1.70;99.90
48488;DHT22;34289;48.572;13.378;2023-03-16T08:06:02;2.80;99.90
48488;DHT22;34289;48.572;13.378;2023-03-16T08:08:30;2.70;99.90
48488;DHT22;34289;48.572;13.378;2023-03-16T08:10:56;2.00;99.90
48488;DHT22;34289;48.572;13.378;2023-03-16T08:13:21;3.50;99.90
48488;DHT22;34289;48.572;13.378;2023-03-16T08:15:48;4.60;99.90
48488;DHT22;34289;48.572;13.378;2023-03-16T08:18:14;6.10;99.90
48488;DHT22;34289;48.572;13.378;2023-03-16T08:20:40;7.10;99.90
48488;DHT22;34289;48.572;13.378;2023-03-16T08:23:06;6.10;99.90
48488;DHT22;34289;48.572;13.378;2023-03-16T08:25:32;7.60;99.90
48488;DHT22;34289;48.572;13.378;2023-03-16T08:27:57;8.10;99.90
48488;DHT22;34289;48.572;13.378;2023-03-16T08:30:23;8.90;99.90
48488;DHT22;34289;48.572;13.378;2023-03-16T08:32:49;8.20;99.90
48488;DHT22;34289;48.572;13.378;2023-03-16T08:35:15;8.20;99.90
48488;DHT22;34289;48.572;13.378;2023-03-16T08:37:41;8.40;99.90
48488;DHT22;34289;48.572;13.378;2023-03-16T08:40:08;8.40;99.90
48488;DHT22;34289;48.572;13.378;2023-03-16T08:42:44;8.20;99.90
48488;DHT22;34289;48.572;13.378;2023-03-16T08:45:11;7.90;99.90
48488;DHT22;34289;48.572;13.378;2023-03-16T08:47:37;8.10;99.90
48488;DHT22;34289;48.572;13.378;2023-03-16T08:50:05;8.20;99.90
48488;DHT22;34289;48.572;13.378;2023-03-16T08:52:33;8.30;99.90
48488;DHT22;34289;48.572;13.378;2023-03-16T08:54:59;8.50;99.90
48488;DHT22;34289;48.572;13.378;2023-03-16T08:57:25;8.40;99.90
48488;DHT22;34289;48.572;13.378;2023-03-16T08:59:51;8.80;99.90
48488;DHT22;34289;48.572;13.378;2023-03-16T09:02:17;9.10;99.90
48488;DHT22;34289;48.572;13.378;2023-03-16T09:04:43;9.30;99.90
48488;DHT22;34289;48.572;13.378;2023-03-16T09:07:08;9.70;99.90
48488;DHT22;34289;48.572;13.378;2023-03-16T09:09:35;8.10;99.90
48488;DHT22;34289;48.572;13.378;2023-03-16T09:12:02;8.20;99.90
48488;DHT22;34289;48.572;13.378;2023-03-16T09:14:28;8.20;99.90
48488;DHT22;34289;48.572;13.378;2023-03-16T09:16:54;9.10;99.90
48488;DHT22;34289;48.572;13.378;2023-03-16T09:19:20;9.90;99.90
48488;DHT22;34289;48.572;13.378;2023-03-16T09:21:47;9.60;99.90
48488;DHT22;34289;48.572;13.378;2023-03-16T09:24:13;9.20;99.90
48488;DHT22;34289;48.572;13.378;2023-03-16T09:26:39;8.90;99.90
48488;DHT22;34289;48.572;13.378;2023-03-16T09:29:04;8.80;99.90
48488;DHT22;34289;48.572;13.378;2023-03-16T09:31:31;9.10;99.90
48488;DHT22;34289;48.572;13.378;2023-03-16T09:33:58;9.10;99.90
48488;DHT22;34289;48.572;13.378;2023-03-16T09:36:24;8.50;99.90
48488;DHT22;34289;48.572;13.378;2023-03-16T09:38:50;8.40;99.90
48488;DHT22;34289;48.572;13.378;2023-03-16T09:41:47;9.20;99.90
48488;DHT22;34289;48.572;13.378;2023-03-16T09:46:44;9.10;99.90
48488;DHT22;34289;48.572;13.378;2023-03-16T09:49:12;9.30;99.90
48488;DHT22;34289;48.572;13.378;2023-03-16T09:54:36;9.20;99.90
48488;DHT22;34289;48.572;13.378;2023-03-16T10:06:24;9.30;99.90
48488;DHT22;34289;48.572;13.378;2023-03-16T10:09:10;9.00;99.90
48488;DHT22;34289;48.572;13.378;2023-03-16T10:11:40;9.30;99.90
48488;DHT22;34289;48.572;13.378;2023-03-16T10:14:24;9.70;99.90
48488;DHT22;34289;48.572;13.378;2023-03-16T10:17:10;9.80;99.90
48488;DHT22;34289;48.572;13.378;2023-03-16T10:20:05;9.00;97.80
48488;DHT22;34289;48.572;13.378;2023-03-16T10:22:37;9.30;99.90
48488;DHT22;34289;48.572;13.378;2023-03-16T10:25:43;9.10;99.40
48488;DHT22;34289;48.572;13.378;2023-03-16T10:28:24;8.80;99.80
48488;DHT22;34289;48.572;13.378;2023-03-16T10:30:52;8.70;99.90
48488;DHT22;34289;48.572;13.378;2023-03-16T10:33:24;8.50;98.70
48488;DHT22;34289;48.572;13.378;2023-03-16T10:38:42;8.10;99.90
48488;DHT22;34289;48.572;13.378;2023-03-16T10:43:48;8.70;99.90
48488;DHT22;34289;48.572;13.378;2023-03-16T10:46:14;9.30;99.50
48488;DHT22;34289;48.572;13.378;2023-03-16T10:48:39;9.70;99.70
48488;DHT22;34289;48.572;13.378;2023-03-16T10:51:13;9.10;99.90
48488;DHT22;34289;48.572;13.378;2023-03-16T10:53:42;9.10;99.90
48488;DHT22;34289;48.572;13.378;2023-03-16T10:56:11;9.50;98.40
48488;DHT22;34289;48.572;13.378;2023-03-16T10:58:42;9.70;99.90
48488;DHT22;34289;48.572;13.378;2023-03-16T11:01:23;9.80;95.60
48488;DHT22;34289;48.572;13.378;2023-03-16T11:03:52;9.70;96.40
48488;DHT22;34289;48.572;13.378;2023-03-16T11:06:30;9.70;95.90
48488;DHT22;34289;48.572;13.378;2023-03-16T11:09:11;9.60;97.40
48488;DHT22;34289;48.572;13.378;2023-03-16T11:11:38;9.70;98.20
48488;DHT22;34289;48.572;13.378;2023-03-16T11:14:11;9.70;97.20
48488;DHT22;34289;48.572;13.378;2023-03-16T11:16:47;9.40;96.00
48488;DHT22;34289;48.572;13.378;2023-03-16T11:19:33;9.60;96.90
48488;DHT22;34289;48.572;13.378;2023-03-16T11:30:25;9.80;96.00
48488;DHT22;34289;48.572;13.378;2023-03-16T11:32:52;9.70;94.30
48488;DHT22;34289;48.572;13.378;2023-03-16T11:38:15;9.80;95.50
48488;DHT22;34289;48.572;13.378;2023-03-16T11:43:38;9.60;96.00
48488;DHT22;34289;48.572;13.378;2023-03-16T11:51:55;9.70;91.50
48488;DHT22;34289;48.572;13.378;2023-03-16T11:54:44;9.60;89.40
48488;DHT22;34289;48.572;13.378;2023-03-16T11:57:37;9.30;90.60
48488;DHT22;34289;48.572;13.378;2023-03-16T12:22:01;10.00;89.70
48488;DHT22;34289;48.572;13.378;2023-03-16T12:24:34;10.10;91.40
48488;DHT22;34289;48.572;13.378;2023-03-16T12:27:03;10.50;89.30
48488;DHT22;34289;48.572;13.378;2023-03-16T12:29:50;10.10;83.70
48488;DHT22;34289;48.572;13.378;2023-03-16T12:32:43;9.70;90.00
48488;DHT22;34289;48.572;13.378;2023-03-16T12:37:44;9.80;87.90
48488;DHT22;34289;48.572;13.378;2023-03-16T12:40:30;9.80;84.20
48488;DHT22;34289;48.572;13.378;2023-03-16T12:48:36;9.90;87.40
48488;DHT22;34289;48.572;13.378;2023-03-16T12:51:03;9.90;88.40
48488;DHT22;34289;48.572;13.378;2023-03-16T12:56:19;10.50;90.30
48488;DHT22;34289;48.572;13.378;2023-03-16T12:58:50;10.50;85.80
48488;DHT22;34289;48.572;13.378;2023-03-16T13:01:29;10.30;83.10
48488;DHT22;34289;48.572;13.378;2023-03-16T13:04:19;9.90;85.10
48488;DHT22;34289;48.572;13.378;2023-03-16T13:07:01;9.90;87.00
48488;DHT22;34289;48.572;13.378;2023-03-16T13:09:29;10.10;79.20
48488;DHT22;34289;48.572;13.378;2023-03-16T13:11:57;10.00;81.60
48488;DHT22;34289;48.572;13.378;2023-03-16T13:14:41;9.60;83.60
48488;DHT22;34289;48.572;13.378;2023-03-16T13:19:44;10.00;82.90
48488;DHT22;34289;48.572;13.378;2023-03-16T13:22:30;10.00;86.70
48488;DHT22;34289;48.572;13.378;2023-03-16T13:25:17;10.10;80.50
48488;DHT22;34289;48.572;13.378;2023-03-16T13:27:51;10.20;83.20
48488;DHT22;34289;48.572;13.378;2023-03-16T13:30:27;10.30;81.90
48488;DHT22;34289;48.572;13.378;2023-03-16T13:32:55;10.10;84.30
48488;DHT22;34289;48.572;13.378;2023-03-16T13:35:27;9.70;79.10
48488;DHT22;34289;48.572;13.378;2023-03-16T13:37:54;9.90;79.70
48488;DHT22;34289;48.572;13.378;2023-03-16T13:40:26;9.70;82.40
48488;DHT22;34289;48.572;13.378;2023-03-16T13:42:52;9.80;78.00
48488;DHT22;34289;48.572;13.378;2023-03-16T13:45:39;9.60;78.90
48488;DHT22;34289;48.572;13.378;2023-03-16T13:48:05;9.60;83.20
48488;DHT22;34289;48.572;13.378;2023-03-16T13:50:32;9.50;83.70
48488;DHT22;34289;48.572;13.378;2023-03-16T13:53:00;9.40;86.80
48488;DHT22;34289;48.572;13.378;2023-03-16T13:55:33;9.40;85.20
48488;DHT22;34289;48.572;13.378;2023-03-16T13:58:00;9.30;80.40
48488;DHT22;34289;48.572;13.378;2023-03-16T14:00:36;9.40;82.90
48488;DHT22;34289;48.572;13.378;2023-03-16T14:03:18;9.70;82.30
48488;DHT22;34289;48.572;13.378;2023-03-16T14:05:46;9.80;84.40
48488;DHT22;34289;48.572;13.378;2023-03-16T14:08:23;9.90;82.00
48488;DHT22;34289;48.572;13.378;2023-03-16T14:10:52;9.70;84.20
48488;DHT22;34289;48.572;13.378;2023-03-16T14:15:48;9.70;84.20
48488;DHT22;34289;48.572;13.378;2023-03-16T14:18:19;9.60;82.00
48488;DHT22;34289;48.572;13.378;2023-03-16T14:20:51;9.70;80.30
48488;DHT22;34289;48.572;13.378;2023-03-16T14:23:20;9.60;79.70
48488;DHT22;34289;48.572;13.378;2023-03-16T14:25:47;9.60;82.80
48488;DHT22;34289;48.572;13.378;2023-03-16T14:28:15;9.80;84.50
48488;DHT22;34289;48.572;13.378;2023-03-16T14:31:02;10.00;85.50
48488;DHT22;34289;48.572;13.378;2023-03-16T14:33:31;10.10;85.10
48488;DHT22;34289;48.572;13.378;2023-03-16T14:35:59;9.90;82.10
48488;DHT22;34289;48.572;13.378;2023-03-16T14:38:33;9.70;78.40
48488;DHT22;34289;48.572;13.378;2023-03-16T14:41:27;9.50;80.20
48488;DHT22;34289;48.572;13.378;2023-03-16T14:43:55;9.80;80.40
48488;DHT22;34289;48.572;13.378;2023-03-16T14:46:28;9.80;82.10
48488;DHT22;34289;48.572;13.378;2023-03-16T14:49:00;9.80;82.10
48488;DHT22;34289;48.572;13.378;2023-03-16T14:51:29;9.70;79.60
48488;DHT22;34289;48.572;13.378;2023-03-16T14:53:56;9.70;82.60
48488;DHT22;34289;48.572;13.378;2023-03-16T14:56:21;9.40;77.90
48488;DHT22;34289;48.572;13.378;2023-03-16T14:58:47;9.50;81.50
48488;DHT22;34289;48.572;13.378;2023-03-16T15:01:15;9.20;80.20
48488;DHT22;34289;48.572;13.378;2023-03-16T15:03:42;9.20;78.70
48488;DHT22;34289;48.572;13.378;2023-03-16T15:06:09;9.00;77.20
48488;DHT22;34289;48.572;13.378;2023-03-16T15:08:35;9.00;75.20
48488;DHT22;34289;48.572;13.378;2023-03-16T15:11:08;9.00;76.70
48488;DHT22;34289;48.572;13.378;2023-03-16T15:13:34;9.00;73.10
48488;DHT22;34289;48.572;13.378;2023-03-16T15:16:09;9.20;79.20
48488;DHT22;34289;48.572;13.378;2023-03-16T15:18:36;9.30;75.10
48488;DHT22;34289;48.572;13.378;2023-03-16T15:21:09;9.30;75.20
48488;DHT22;34289;48.572;13.378;2023-03-16T15:23:36;9.10;74.90
48488;DHT22;34289;48.572;13.378;2023-03-16T15:26:02;9.10;75.00
48488;DHT22;34289;48.572;13.378;2023-03-16T15:28:30;9.00;76.20
48488;DHT22;34289;48.572;13.378;2023-03-16T15:30:57;8.90;73.40
48488;DHT22;34289;48.572;13.378;2023-03-16T15:33:24;8.90;77.20
48488;DHT22;34289;48.572;13.378;2023-03-16T15:35:53;8.80;72.60
48488;DHT22;34289;48.572;13.378;2023-03-16T15:38:31;8.80;74.60
48488;DHT22;34289;48.572;13.378;2023-03-16T15:40:58;8.90;74.30
48488;DHT22;34289;48.572;13.378;2023-03-16T15:43:27;9.00;74.60
48488;DHT22;34289;48.572;13.378;2023-03-16T15:45:54;8.90;75.10
48488;DHT22;34289;48.572;13.378;2023-03-16T15:48:20;8.80;79.70
48488;DHT22;34289;48.572;13.378;2023-03-16T15:51:24;8.70;76.00
48488;DHT22;34289;48.572;13.378;2023-03-16T15:54:17;8.60;78.60
48488;DHT22;34289;48.572;13.378;2023-03-16T15:56:43;8.40;78.30
48488;DHT22;34289;48.572;13.378;2023-03-16T15:59:12;8.30;78.30
48488;DHT22;34289;48.572;13.378;2023-03-16T16:01:43;8.40;76.00
48488;DHT22;34289;48.572;13.378;2023-03-16T16:04:21;8.40;80.10
48488;DHT22;34289;48.572;13.378;2023-03-16T16:06:50;8.40;78.80
48488;DHT22;34289;48.572;13.378;2023-03-16T16:09:19;8.30;77.40
48488;DHT22;34289;48.572;13.378;2023-03-16T16:11:45;8.80;77.20
48488;DHT22;34289;48.572;13.378;2023-03-16T16:14:15;8.20;79.10
48488;DHT22;34289;48.572;13.378;2023-03-16T16:16:43;8.10;75.50
48488;DHT22;34289;48.572;13.378;2023-03-16T16:19:14;7.90;75.20
48488;DHT22;34289;48.572;13.378;2023-03-16T16:21:40;8.20;74.70
48488;DHT22;34289;48.572;13.378;2023-03-16T16:24:07;8.00;75.40
48488;DHT22;34289;48.572;13.378;2023-03-16T16:26:41;7.90;76.30
48488;DHT22;34289;48.572;13.378;2023-03-16T16:29:14;7.80;76.80
48488;DHT22;34289;48.572;13.378;2023-03-16T16:31:41;7.70;76.10
48488;DHT22;34289;48.572;13.378;2023-03-16T16:34:14;7.60;78.40
48488;DHT22;34289;48.572;13.378;2023-03-16T16:36:41;7.50;77.70
48488;DHT22;34289;48.572;13.378;2023-03-16T16:39:07;7.50;77.50
48488;DHT22;34289;48.572;13.378;2023-03-16T16:41:33;7.30;77.60
48488;DHT22;34289;48.572;13.378;2023-03-16T16:44:01;7.20;78.60
48488;DHT22;34289;48.572;13.378;2023-03-16T16:46:36;7.20;76.60
48488;DHT22;34289;48.572;13.378;2023-03-16T16:49:13;7.10;77.80
48488;DHT22;34289;48.572;13.378;2023-03-16T16:51:39;6.90;80.70
48488;DHT22;34289;48.572;13.378;2023-03-16T16:54:14;6.80;83.00
48488;DHT22;34289;48.572;13.378;2023-03-16T16:56:40;6.70;82.40
48488;DHT22;34289;48.572;13.378;2023-03-16T17:01:41;6.40;82.80
48488;DHT22;34289;48.572;13.378;2023-03-16T17:04:16;6.60;86.90